Terminal Aerodrome Forecast
Issued by NWS

Home | Current Version | Previous Version | Text Only | Print | Product List | Glossary On
Versions: 1 2 3 4 5 6 7 8 9 10 11 12 13 14 15 16 17
596
FTUS42 KMLB 070544
TAFTIX
TAF
KTIX 070544Z 0706/0806 31012G20KT P6SM -RA OVC006
     FM070900 31015G20KT P6SM BKN008 OVC010
     FM071500 31017G25KT P6SM SCT008 BKN010
     FM071900 31020G28KT P6SM SCT020 BKN035
     FM080000 29010KT P6SM SKC
      AMD NOT SKED TIL 071200=

USA.gov is the U.S. government's official web portal to all federal, state and local government web resources and services.